createdAt,value
2017-11-27T05:00:47.026Z,1012.36
2017-11-27T05:01:12.527Z,1012.45
2017-11-27T05:01:38.055Z,1012.41
2017-11-27T05:02:03.523Z,1012.38
2017-11-27T05:02:29.004Z,1012.4
2017-11-27T05:02:54.520Z,1012.4
2017-11-27T05:03:20.004Z,1012.4
2017-11-27T05:03:45.493Z,1012.38
2017-11-27T05:04:10.957Z,1012.38
2017-11-27T05:04:36.467Z,1012.38
2017-11-27T05:05:01.930Z,1012.41
2017-11-27T05:05:27.410Z,1012.34
2017-11-27T05:05:52.916Z,1012.36
2017-11-27T05:06:18.400Z,1012.38
2017-11-27T05:06:43.904Z,1012.32
2017-11-27T05:07:09.395Z,1012.32
2017-11-27T05:07:34.879Z,1012.31
2017-11-27T05:08:00.345Z,1012.3
2017-11-27T05:08:25.806Z,1012.23
2017-11-27T05:08:51.314Z,1012.24
2017-11-27T05:09:16.846Z,1012.25
2017-11-27T05:09:42.350Z,1012.18
2017-11-27T05:10:07.828Z,1012.25
2017-11-27T05:10:33.383Z,1012.24
2017-11-27T05:10:58.885Z,1012.29
2017-11-27T05:11:24.379Z,1012.25
2017-11-27T05:11:49.872Z,1012.28
2017-11-27T05:12:15.315Z,1012.25
2017-11-27T05:12:40.822Z,1012.27
2017-11-27T05:13:06.325Z,1012.22
2017-11-27T05:13:31.801Z,1012.25
2017-11-27T05:13:57.301Z,1012.21
2017-11-27T05:14:22.778Z,1012.16
2017-11-27T05:14:48.249Z,1012.15
2017-11-27T05:15:13.733Z,1012.13
2017-11-27T05:15:39.218Z,1012.13
2017-11-27T05:16:04.726Z,1012.11
2017-11-27T05:16:30.199Z,1012.12
2017-11-27T05:16:55.728Z,1012.14
2017-11-27T05:17:21.234Z,1012.15
2017-11-27T05:18:24.859Z,1012.2
2017-11-27T05:18:50.351Z,1012.11
2017-11-27T05:19:15.863Z,1012.1
2017-11-27T05:19:41.359Z,1012.07
2017-11-27T05:20:06.823Z,1012.07
2017-11-27T05:20:32.333Z,1012.17
2017-11-27T05:20:57.828Z,1012.06
2017-11-27T05:21:23.328Z,1012.1
2017-11-27T05:21:48.821Z,1012.08
2017-11-27T05:22:14.309Z,1012.12
2017-11-27T05:22:39.794Z,1012.05
2017-11-27T05:23:05.306Z,1012.06
2017-11-27T05:23:30.759Z,1012.07
2017-11-27T05:23:56.261Z,1012.05
2017-11-27T05:24:21.707Z,1012.01
2017-11-27T05:24:47.191Z,1012.02
2017-11-27T05:25:12.680Z,1012
2017-11-27T05:25:38.174Z,1011.98
2017-11-27T05:26:03.721Z,1011.97
2017-11-27T05:26:29.181Z,1011.98
2017-11-27T05:26:54.653Z,1012.01
2017-11-27T05:27:20.153Z,1012
2017-11-27T05:27:45.643Z,1012.03
2017-11-27T05:28:11.126Z,1012.06
2017-11-27T05:28:36.621Z,1012.03
2017-11-27T05:29:02.064Z,1012
2017-11-27T05:29:27.564Z,1012.09
2017-11-27T05:29:53.064Z,1011.99
2017-11-27T05:30:18.542Z,1012.01
2017-11-27T05:30:44.056Z,1011.99
2017-11-27T05:31:09.591Z,1012.04
2017-11-27T05:31:35.102Z,1012.01
2017-11-27T05:32:00.589Z,1011.98
2017-11-27T05:32:26.078Z,1012.01
2017-11-27T05:32:51.557Z,1012.03
2017-11-27T05:33:17.041Z,1012.02
2017-11-27T05:33:42.557Z,1011.97
2017-11-27T05:34:08.061Z,1011.93
2017-11-27T05:34:33.544Z,1011.95
2017-11-27T05:34:59.010Z,1011.92
2017-11-27T05:35:24.547Z,1011.92
2017-11-27T05:35:50.051Z,1011.92
2017-11-27T05:36:15.528Z,1011.9
2017-11-27T05:36:41.027Z,1011.91
2017-11-27T05:37:06.524Z,1011.88
2017-11-27T05:37:32.021Z,1011.87
2017-11-27T05:37:57.519Z,1011.82
2017-11-27T05:38:22.972Z,1011.87
2017-11-27T05:38:48.490Z,1011.83
2017-11-27T05:39:14.009Z,1011.88
2017-11-27T05:39:39.597Z,1011.87
2017-11-27T05:40:04.993Z,1011.84
2017-11-27T05:40:30.492Z,1011.83
2017-11-27T05:40:55.958Z,1011.81
2017-11-27T05:41:21.448Z,1011.79
2017-11-27T05:41:46.993Z,1011.81
2017-11-27T05:42:12.525Z,1011.78
2017-11-27T05:42:38.007Z,1011.76
2017-11-27T05:43:03.528Z,1011.78
2017-11-27T05:43:29.005Z,1011.79
2017-11-27T05:43:54.515Z,1011.82
2017-11-27T05:44:19.990Z,1011.73
2017-11-27T05:44:45.519Z,1011.74
2017-11-27T05:45:10.950Z,1011.75
2017-11-27T05:45:36.437Z,1011.69
2017-11-27T05:46:01.938Z,1011.66
2017-11-27T05:46:27.409Z,1011.7
2017-11-27T05:46:52.928Z,1011.75
2017-11-27T05:47:18.392Z,1011.73
2017-11-27T05:47:43.902Z,1011.71
2017-11-27T05:48:09.375Z,1011.71
2017-11-27T05:48:34.869Z,1011.77
2017-11-27T05:49:00.361Z,1011.78
2017-11-27T05:49:25.847Z,1011.78
2017-11-27T05:49:51.352Z,1011.75
2017-11-27T05:50:16.815Z,1011.77
2017-11-27T05:50:42.278Z,1011.72
2017-11-27T05:51:07.758Z,1011.74
2017-11-27T05:51:33.244Z,1011.7
2017-11-27T05:51:58.744Z,1011.68
2017-11-27T05:52:24.224Z,1011.66
2017-11-27T05:52:49.721Z,1011.68
2017-11-27T05:53:15.195Z,1011.66
2017-11-27T05:53:40.682Z,1011.68
2017-11-27T05:54:06.150Z,1011.68
2017-11-27T05:54:31.629Z,1011.71
2017-11-27T05:54:57.085Z,1011.62
2017-11-27T05:55:22.622Z,1011.65
2017-11-27T05:55:48.119Z,1011.7
2017-11-27T05:56:13.607Z,1011.67
2017-11-27T05:56:39.105Z,1011.65
2017-11-27T05:57:04.559Z,1011.64
2017-11-27T05:57:30.022Z,1011.6
2017-11-27T05:57:55.540Z,1011.61
2017-11-27T05:58:21.012Z,1011.63
2017-11-27T05:58:46.512Z,1011.63
2017-11-27T05:59:12.035Z,1011.67
2017-11-27T05:59:37.505Z,1011.63
2017-11-27T06:00:03.033Z,1011.63
2017-11-27T06:00:28.543Z,1011.61
2017-11-27T06:00:53.989Z,1011.64
2017-11-27T06:01:19.485Z,1011.55
2017-11-27T06:01:44.988Z,1011.54
2017-11-27T06:02:10.529Z,1011.6
2017-11-27T06:02:36.027Z,1011.56
2017-11-27T06:03:01.491Z,1011.55
2017-11-27T06:03:26.990Z,1011.53
2017-11-27T06:03:52.450Z,1011.5
2017-11-27T06:04:17.934Z,1011.45
2017-11-27T06:04:43.403Z,1011.5
2017-11-27T06:05:08.901Z,1011.48
2017-11-27T06:05:34.374Z,1011.48
2017-11-27T06:05:59.858Z,1011.37
2017-11-27T06:06:25.384Z,1011.43
2017-11-27T06:06:50.868Z,1011.47
2017-11-27T06:07:16.364Z,1011.47
2017-11-27T06:07:41.858Z,1011.47
2017-11-27T06:08:07.325Z,1011.41
2017-11-27T06:08:32.840Z,1011.46
2017-11-27T06:08:58.295Z,1011.41
2017-11-27T06:09:23.784Z,1011.4
2017-11-27T06:09:49.279Z,1011.38
2017-11-27T06:10:14.768Z,1011.38
2017-11-27T06:10:40.242Z,1011.38
2017-11-27T06:11:05.729Z,1011.33
2017-11-27T06:11:31.225Z,1011.28
2017-11-27T06:11:56.679Z,1011.31
2017-11-27T06:12:22.154Z,1011.3
2017-11-27T06:12:47.659Z,1011.28
2017-11-27T06:13:13.137Z,1011.28
2017-11-27T06:13:38.636Z,1011.33
2017-11-27T06:14:04.118Z,1011.24
2017-11-27T06:14:29.612Z,1011.29
2017-11-27T06:14:55.093Z,1011.24
2017-11-27T06:15:20.573Z,1011.25
2017-11-27T06:15:46.079Z,1011.21
2017-11-27T06:16:11.552Z,1011.22
2017-11-27T06:16:37.025Z,1011.26
2017-11-27T06:17:02.501Z,1011.28
2017-11-27T06:17:27.991Z,1011.23
2017-11-27T06:17:53.475Z,1011.21
2017-11-27T06:18:18.979Z,1011.2
2017-11-27T06:18:44.449Z,1011.18
2017-11-27T06:19:09.928Z,1011.19
2017-11-27T06:19:35.440Z,1011.18
2017-11-27T06:20:00.933Z,1011.19
2017-11-27T06:20:26.443Z,1011.15
2017-11-27T06:20:51.893Z,1011.17
2017-11-27T06:21:17.361Z,1011.1
2017-11-27T06:21:42.850Z,1011.08
2017-11-27T06:22:08.380Z,1011.03
2017-11-27T06:22:33.860Z,1011.01
2017-11-27T06:22:59.356Z,1011.01
2017-11-27T06:23:24.844Z,1011.08
2017-11-27T06:23:50.346Z,1011.06
2017-11-27T06:24:15.800Z,1011.02
2017-11-27T06:24:41.285Z,1011.06
2017-11-27T06:25:06.802Z,1011.04
2017-11-27T06:25:32.239Z,1010.99
2017-11-27T06:25:57.736Z,1010.99
2017-11-27T06:26:23.319Z,1010.96
2017-11-27T06:26:48.810Z,1010.95
2017-11-27T06:27:14.263Z,1010.97
2017-11-27T06:27:39.766Z,1010.97
2017-11-27T06:28:05.254Z,1010.96
2017-11-27T06:28:30.752Z,1010.98
2017-11-27T06:28:56.249Z,1010.88
2017-11-27T06:29:21.706Z,1010.92
2017-11-27T06:29:47.212Z,1010.92
2017-11-27T06:30:12.706Z,1010.89
2017-11-27T06:30:38.204Z,1010.91
2017-11-27T06:31:03.716Z,1010.88
2017-11-27T06:31:29.201Z,1010.89
2017-11-27T06:31:54.716Z,1010.87
2017-11-27T06:32:20.195Z,1010.88
2017-11-27T06:32:45.671Z,1010.84
2017-11-27T06:33:11.136Z,1010.9
2017-11-27T06:33:36.629Z,1010.89
2017-11-27T06:34:02.137Z,1010.84
2017-11-27T06:34:27.627Z,1010.84
2017-11-27T06:34:53.117Z,1010.86
2017-11-27T06:35:18.581Z,1010.78
2017-11-27T06:35:44.082Z,1010.8
2017-11-27T06:36:52.832Z,1010.8
2017-11-27T06:37:18.330Z,1010.76
2017-11-27T06:37:43.816Z,1010.79
2017-11-27T06:38:09.285Z,1010.8
2017-11-27T06:38:34.784Z,1010.76
2017-11-27T06:39:00.286Z,1010.76
2017-11-27T06:39:25.789Z,1010.74
2017-11-27T06:39:51.276Z,1010.73
2017-11-27T06:40:16.782Z,1010.68
2017-11-27T06:40:42.278Z,1010.7
2017-11-27T06:41:07.774Z,1010.66
2017-11-27T06:41:33.258Z,1010.69
2017-11-27T06:41:58.712Z,1010.71
2017-11-27T06:42:24.206Z,1010.68
2017-11-27T06:42:49.735Z,1010.68
2017-11-27T06:43:15.234Z,1010.64
2017-11-27T06:43:40.732Z,1010.67
2017-11-27T06:44:06.223Z,1010.7
2017-11-27T06:44:31.725Z,1010.64
2017-11-27T06:44:57.209Z,1010.68
2017-11-27T06:45:22.727Z,1010.61
2017-11-27T06:45:48.195Z,1010.62
2017-11-27T06:46:13.667Z,1010.65
2017-11-27T06:46:39.260Z,1010.67
2017-11-27T06:47:04.718Z,1010.64
2017-11-27T06:47:30.220Z,1010.67
2017-11-27T06:47:55.695Z,1010.62
2017-11-27T06:48:21.224Z,1010.61
2017-11-27T06:48:46.697Z,1010.65
2017-11-27T06:49:12.225Z,1010.66
2017-11-27T06:49:37.721Z,1010.58
2017-11-27T06:50:03.178Z,1010.61
2017-11-27T06:50:28.688Z,1010.57
2017-11-27T06:50:54.169Z,1010.55
2017-11-27T06:51:19.642Z,1010.54
2017-11-27T06:51:45.127Z,1010.52
2017-11-27T06:52:10.618Z,1010.52
2017-11-27T06:52:36.140Z,1010.49
2017-11-27T06:53:01.636Z,1010.48
2017-11-27T06:53:27.103Z,1010.54
2017-11-27T06:53:52.571Z,1010.54
2017-11-27T06:54:18.062Z,1010.47
2017-11-27T06:54:43.560Z,1010.45
2017-11-27T06:55:09.031Z,1010.46
2017-11-27T06:55:34.481Z,1010.47
2017-11-27T06:55:59.980Z,1010.44
2017-11-27T06:56:25.476Z,1010.42
2017-11-27T06:56:50.945Z,1010.37
2017-11-27T06:57:16.452Z,1010.38
2017-11-27T06:57:41.977Z,1010.36
2017-11-27T06:58:07.466Z,1010.38
2017-11-27T06:58:32.951Z,1010.33
2017-11-27T06:58:58.429Z,1010.39
2017-11-27T06:59:23.970Z,1010.37
2017-11-27T06:59:49.426Z,1010.36
2017-11-27T07:00:14.884Z,1010.3
2017-11-27T07:00:40.364Z,1010.3
2017-11-27T07:01:05.875Z,1010.3
2017-11-27T07:01:31.350Z,1010.32
2017-11-27T07:01:56.886Z,1010.34
2017-11-27T07:02:22.372Z,1010.33
2017-11-27T07:02:47.892Z,1010.33
2017-11-27T07:03:13.356Z,1010.37
2017-11-27T07:03:38.839Z,1010.29
2017-11-27T07:04:04.335Z,1010.25
2017-11-27T07:04:29.797Z,1010.28
2017-11-27T07:04:55.300Z,1010.25
2017-11-27T07:05:20.781Z,1010.23
2017-11-27T07:05:46.240Z,1010.23
2017-11-27T07:06:11.720Z,1010.18
2017-11-27T07:06:37.199Z,1010.16
2017-11-27T07:07:02.702Z,1010.13
2017-11-27T07:07:28.214Z,1010.19
2017-11-27T07:07:53.736Z,1010.15
2017-11-27T07:08:19.221Z,1010.18
2017-11-27T07:08:44.698Z,1010.17
2017-11-27T07:09:10.204Z,1010.19
2017-11-27T07:09:35.727Z,1010.13
2017-11-27T07:10:39.313Z,1010.14
2017-11-27T07:11:04.789Z,1010.17
2017-11-27T07:11:30.278Z,1010.18
2017-11-27T07:11:55.773Z,1010.14
2017-11-27T07:12:21.264Z,1010.06
2017-11-27T07:12:46.741Z,1010.06
2017-11-27T07:13:12.278Z,1010.08
2017-11-27T07:13:37.731Z,1010.08
2017-11-27T07:14:03.232Z,1010.06
2017-11-27T07:14:28.683Z,1010.06
2017-11-27T07:14:54.178Z,1010.1
2017-11-27T07:15:19.655Z,1010.07
2017-11-27T07:15:45.119Z,1010.05
2017-11-27T07:16:10.597Z,1010.07
2017-11-27T07:16:36.052Z,1010.09
2017-11-27T07:17:01.527Z,1010.04
2017-11-27T07:17:26.985Z,1010.07
2017-11-27T07:17:52.458Z,1010.05
2017-11-27T07:18:17.954Z,1010.05
2017-11-27T07:18:43.409Z,1010.03
2017-11-27T07:19:08.897Z,1010
2017-11-27T07:19:34.373Z,1009.95
2017-11-27T07:19:59.830Z,1009.99
2017-11-27T07:20:25.345Z,1010.02
2017-11-27T07:20:50.859Z,1009.94
2017-11-27T07:21:16.337Z,1010.03
2017-11-27T07:21:41.832Z,1009.98
2017-11-27T07:22:07.335Z,1009.95
2017-11-27T07:22:32.809Z,1009.97
2017-11-27T07:22:58.308Z,1009.9
2017-11-27T07:23:23.795Z,1009.96
2017-11-27T07:23:49.285Z,1009.89
2017-11-27T07:24:14.809Z,1009.85
2017-11-27T07:24:40.270Z,1009.89
2017-11-27T07:25:05.810Z,1009.86
2017-11-27T07:25:31.246Z,1009.86
2017-11-27T07:25:56.729Z,1009.78
2017-11-27T07:26:22.207Z,1009.91
2017-11-27T07:26:47.663Z,1009.82
2017-11-27T07:27:13.197Z,1009.82
2017-11-27T07:27:38.676Z,1009.81
2017-11-27T07:28:04.273Z,1009.81
2017-11-27T07:28:29.719Z,1009.78
2017-11-27T07:28:55.137Z,1009.8
2017-11-27T07:29:20.582Z,1009.78
2017-11-27T07:29:46.054Z,1009.7
2017-11-27T07:30:11.518Z,1009.82
2017-11-27T07:30:36.973Z,1009.8
2017-11-27T07:31:02.489Z,1009.88
2017-11-27T07:31:27.998Z,1009.8
2017-11-27T07:31:53.417Z,1009.85
2017-11-27T07:32:18.947Z,1009.84
2017-11-27T07:32:44.432Z,1009.82
2017-11-27T07:33:09.895Z,1009.85
2017-11-27T07:33:35.387Z,1009.82
2017-11-27T07:34:00.788Z,1009.86
2017-11-27T07:34:26.246Z,1009.85
2017-11-27T07:34:51.755Z,1009.76
2017-11-27T07:35:17.205Z,1009.89
2017-11-27T07:35:42.663Z,1009.84
2017-11-27T07:36:08.114Z,1009.84
2017-11-27T07:36:33.580Z,1009.85
2017-11-27T07:36:59.026Z,1009.83
2017-11-27T07:37:24.502Z,1009.8
2017-11-27T07:37:49.930Z,1009.82
2017-11-27T07:38:15.445Z,1009.83
2017-11-27T07:38:40.865Z,1009.83
2017-11-27T07:39:06.370Z,1009.76
2017-11-27T07:39:31.804Z,1009.8
2017-11-27T07:39:57.273Z,1009.77
2017-11-27T07:40:22.845Z,1009.77
2017-11-27T07:40:48.282Z,1009.77
2017-11-27T07:41:13.734Z,1009.76
2017-11-27T07:41:39.191Z,1009.79
2017-11-27T07:42:04.615Z,1009.79
2017-11-27T07:42:30.193Z,1009.71
2017-11-27T07:42:55.648Z,1009.8
2017-11-27T07:43:21.066Z,1009.75
2017-11-27T07:43:46.537Z,1009.78
2017-11-27T07:44:12.022Z,1009.79
2017-11-27T07:44:37.483Z,1009.75
2017-11-27T07:45:02.988Z,1009.73
2017-11-27T07:45:28.445Z,1009.76
2017-11-27T07:45:53.895Z,1009.74
2017-11-27T07:46:19.397Z,1009.7
2017-11-27T07:46:44.844Z,1009.74
2017-11-27T07:47:10.326Z,1009.71
2017-11-27T07:47:35.792Z,1009.69
2017-11-27T07:48:01.299Z,1009.62
2017-11-27T07:48:26.730Z,1009.72
2017-11-27T07:48:52.186Z,1009.63
2017-11-27T07:49:17.667Z,1009.64
2017-11-27T07:49:43.120Z,1009.63
2017-11-27T07:50:08.576Z,1009.61
2017-11-27T07:50:34.089Z,1009.62
2017-11-27T07:50:59.506Z,1009.55
2017-11-27T07:51:24.994Z,1009.53
2017-11-27T07:51:50.423Z,1009.57
2017-11-27T07:52:15.898Z,1009.56
2017-11-27T07:52:41.420Z,1009.53
2017-11-27T07:53:06.893Z,1009.57
2017-11-27T07:53:32.358Z,1009.57
2017-11-27T07:53:57.818Z,1009.56
2017-11-27T07:54:23.282Z,1009.55
2017-11-27T07:54:48.759Z,1009.53
2017-11-27T07:55:14.228Z,1009.51
2017-11-27T07:55:39.668Z,1009.56
2017-11-27T07:56:05.132Z,1009.56
2017-11-27T07:56:30.609Z,1009.48
2017-11-27T07:56:56.105Z,1009.52
2017-11-27T07:57:21.589Z,1009.45
2017-11-27T07:57:47.096Z,1009.45
2017-11-27T07:58:12.579Z,1009.51
2017-11-27T07:58:38.087Z,1009.49
2017-11-27T07:59:03.564Z,1009.45
2017-11-27T08:00:02.098Z,1009.44
2017-11-27T08:00:27.591Z,1009.42
2017-11-27T08:00:53.102Z,1009.37
2017-11-27T08:01:18.592Z,1009.38
2017-11-27T08:01:44.013Z,1009.32
2017-11-27T08:02:09.473Z,1009.37
2017-11-27T08:02:34.999Z,1009.39
2017-11-27T08:03:00.465Z,1009.39
2017-11-27T08:03:25.940Z,1009.38
2017-11-27T08:03:51.416Z,1009.33
2017-11-27T08:04:16.855Z,1009.34
2017-11-27T08:04:42.344Z,1009.38
2017-11-27T08:05:07.829Z,1009.34
2017-11-27T08:05:33.280Z,1009.29
2017-11-27T08:05:58.786Z,1009.32
2017-11-27T08:06:24.265Z,1009.28
2017-11-27T08:06:49.730Z,1009.26
2017-11-27T08:07:15.141Z,1009.28
2017-11-27T08:07:40.628Z,1009.27
2017-11-27T08:08:06.072Z,1009.27
2017-11-27T08:08:31.551Z,1009.28
2017-11-27T08:08:57.017Z,1009.31
2017-11-27T08:09:22.541Z,1009.14
2017-11-27T08:09:47.987Z,1009.23
2017-11-27T08:10:13.480Z,1009.18
2017-11-27T08:10:38.900Z,1009.17
2017-11-27T08:11:04.400Z,1009.17
2017-11-27T08:11:29.912Z,1009.17
2017-11-27T08:11:55.419Z,1009.14
2017-11-27T08:12:20.950Z,1009.18
2017-11-27T08:12:46.370Z,1009.05
2017-11-27T08:13:11.835Z,1009.08
2017-11-27T08:13:37.401Z,1009.04
2017-11-27T08:14:03.043Z,1009.04
2017-11-27T08:14:28.602Z,1009.06
2017-11-27T08:14:54.220Z,1009
2017-11-27T08:15:19.807Z,1009.06
2017-11-27T08:15:45.372Z,1009.06
2017-11-27T08:16:10.943Z,1009.03
2017-11-27T08:16:36.566Z,1009.03
2017-11-27T08:17:02.105Z,1009.04
2017-11-27T08:17:27.600Z,1008.99
2017-11-27T08:17:53.187Z,1008.96
2017-11-27T08:18:18.760Z,1009.02
2017-11-27T08:18:44.391Z,1008.94
2017-11-27T08:19:09.972Z,1008.92
2017-11-27T08:19:35.515Z,1008.94
2017-11-27T08:20:01.022Z,1008.88
2017-11-27T08:20:26.522Z,1008.95
2017-11-27T08:20:52.126Z,1008.96
2017-11-27T08:21:17.535Z,1008.91
2017-11-27T08:21:43.064Z,1008.88
2017-11-27T08:22:08.506Z,1008.9
2017-11-27T08:22:33.995Z,1008.9
2017-11-27T08:22:59.494Z,1008.96
2017-11-27T08:23:24.929Z,1008.91
2017-11-27T08:23:50.377Z,1008.86
2017-11-27T08:24:15.916Z,1008.94
2017-11-27T08:24:41.410Z,1008.87
2017-11-27T08:25:06.936Z,1008.83
2017-11-27T08:25:32.447Z,1008.96
2017-11-27T08:25:57.916Z,1008.86
2017-11-27T08:26:23.457Z,1008.85
2017-11-27T08:26:48.930Z,1008.83
2017-11-27T08:27:14.410Z,1008.79
2017-11-27T08:27:39.898Z,1008.82
2017-11-27T08:28:05.355Z,1008.85
2017-11-27T08:28:30.838Z,1008.82
2017-11-27T08:28:56.314Z,1008.81
2017-11-27T08:29:21.807Z,1008.83
2017-11-27T08:29:47.345Z,1008.8
2017-11-27T08:30:12.835Z,1008.89
2017-11-27T08:30:38.333Z,1008.83
2017-11-27T08:31:03.809Z,1008.84
2017-11-27T08:31:29.284Z,1008.76
2017-11-27T08:31:54.742Z,1008.67
2017-11-27T08:32:20.263Z,1008.74
2017-11-27T08:32:45.734Z,1008.76
2017-11-27T08:33:11.264Z,1008.73
2017-11-27T08:33:36.731Z,1008.71
2017-11-27T08:34:02.192Z,1008.75
2017-11-27T08:34:27.707Z,1008.79
2017-11-27T08:34:53.209Z,1008.7
2017-11-27T08:35:18.688Z,1008.66
2017-11-27T08:35:44.180Z,1008.72
2017-11-27T08:36:09.704Z,1008.7
2017-11-27T08:36:35.200Z,1008.64
2017-11-27T08:37:00.701Z,1008.76
2017-11-27T08:37:26.214Z,1008.66
2017-11-27T08:37:51.677Z,1008.73
2017-11-27T08:38:17.147Z,1008.7
2017-11-27T08:38:42.606Z,1008.73
2017-11-27T08:39:08.099Z,1008.69
2017-11-27T08:39:33.570Z,1008.62
2017-11-27T08:39:59.055Z,1008.71
2017-11-27T08:40:24.542Z,1008.69
2017-11-27T08:40:50.045Z,1008.73
2017-11-27T08:41:15.492Z,1008.67
2017-11-27T08:41:40.973Z,1008.66
2017-11-27T08:42:06.443Z,1008.69
2017-11-27T08:42:31.960Z,1008.67
2017-11-27T08:42:57.430Z,1008.67
2017-11-27T08:43:22.911Z,1008.71
2017-11-27T08:43:48.402Z,1008.61
2017-11-27T08:44:13.904Z,1008.57
2017-11-27T08:44:39.403Z,1008.55
2017-11-27T08:45:04.905Z,1008.57
2017-11-27T08:45:30.413Z,1008.5
2017-11-27T08:45:55.918Z,1008.58
2017-11-27T08:46:21.395Z,1008.6
2017-11-27T08:46:46.915Z,1008.56
2017-11-27T08:47:12.375Z,1008.58
2017-11-27T08:47:37.863Z,1008.53
2017-11-27T08:48:03.381Z,1008.45
2017-11-27T08:48:28.875Z,1008.47
2017-11-27T08:48:54.346Z,1008.53
2017-11-27T08:49:19.806Z,1008.57
2017-11-27T08:49:45.332Z,1008.41
2017-11-27T08:50:10.822Z,1008.48
2017-11-27T08:50:36.354Z,1008.44
2017-11-27T08:51:01.851Z,1008.44
2017-11-27T08:51:27.357Z,1008.41
2017-11-27T08:51:52.845Z,1008.41
2017-11-27T08:52:18.322Z,1008.41
2017-11-27T08:52:43.812Z,1008.39
2017-11-27T08:53:09.312Z,1008.42
2017-11-27T08:53:34.788Z,1008.31
2017-11-27T08:54:00.239Z,1008.41
2017-11-27T08:54:25.726Z,1008.33
2017-11-27T08:54:51.235Z,1008.35
2017-11-27T08:55:16.710Z,1008.29
2017-11-27T08:55:42.197Z,1008.33
2017-11-27T08:56:07.725Z,1008.29
2017-11-27T08:56:33.180Z,1008.32
2017-11-27T08:56:58.692Z,1008.27
2017-11-27T08:57:24.191Z,1008.26
2017-11-27T08:57:49.692Z,1008.22
2017-11-27T08:58:15.189Z,1008.23
2017-11-27T08:58:40.683Z,1008.23
2017-11-27T08:59:06.178Z,1008.35
2017-11-27T08:59:31.657Z,1008.21
2017-11-27T08:59:57.174Z,1008.19
2017-11-27T09:00:22.666Z,1008.18
2017-11-27T09:00:48.178Z,1008.17
2017-11-27T09:01:13.677Z,1008.16
2017-11-27T09:01:39.204Z,1008.15
2017-11-27T09:02:04.713Z,1008.14
2017-11-27T09:02:30.240Z,1008.11
2017-11-27T09:02:55.713Z,1008.14
2017-11-27T09:03:21.217Z,1008.18
2017-11-27T09:03:46.729Z,1008.07
2017-11-27T09:04:12.233Z,1008.07
2017-11-27T09:04:37.688Z,1008.05
2017-11-27T09:05:03.199Z,1008.07
2017-11-27T09:05:28.672Z,1008.1
2017-11-27T09:05:54.148Z,1007.97
2017-11-27T09:06:19.637Z,1008.04
2017-11-27T09:06:45.125Z,1008.02
2017-11-27T09:07:10.640Z,1007.98
2017-11-27T09:07:36.139Z,1007.99
2017-11-27T09:08:01.614Z,1008
2017-11-27T09:08:27.105Z,1008.03
2017-11-27T09:08:52.590Z,1008.02
2017-11-27T09:09:18.115Z,1008.02
2017-11-27T09:09:43.616Z,1008.03
2017-11-27T09:10:09.151Z,1008.02
2017-11-27T09:10:34.624Z,1007.99
2017-11-27T09:11:00.095Z,1007.97
2017-11-27T09:11:25.586Z,1007.97
2017-11-27T09:11:51.076Z,1008.02
2017-11-27T09:12:16.610Z,1007.96
2017-11-27T09:12:42.104Z,1007.98
2017-11-27T09:13:07.575Z,1007.91
2017-11-27T09:13:33.106Z,1007.96
2017-11-27T09:13:58.608Z,1007.95
2017-11-27T09:14:24.095Z,1007.91
2017-11-27T09:14:49.570Z,1007.93
2017-11-27T09:15:15.040Z,1007.93
2017-11-27T09:15:40.521Z,1007.89
2017-11-27T09:16:06.000Z,1007.88
2017-11-27T09:16:31.529Z,1007.89
2017-11-27T09:16:56.960Z,1007.91
2017-11-27T09:17:22.440Z,1007.87
2017-11-27T09:17:47.957Z,1007.86
2017-11-27T09:18:13.412Z,1007.85
2017-11-27T09:18:38.896Z,1007.89
2017-11-27T09:19:04.350Z,1007.85
2017-11-27T09:19:29.832Z,1007.79
2017-11-27T09:19:55.283Z,1007.72
2017-11-27T09:20:20.727Z,1007.81
2017-11-27T09:20:46.213Z,1007.77
2017-11-27T09:21:11.709Z,1007.79
2017-11-27T09:21:37.109Z,1007.81
2017-11-27T09:22:02.605Z,1007.84
2017-11-27T09:22:28.075Z,1007.8
2017-11-27T09:22:53.547Z,1007.76
2017-11-27T09:23:18.995Z,1007.81
2017-11-27T09:23:44.497Z,1007.78
2017-11-27T09:24:09.940Z,1007.72
2017-11-27T09:24:35.465Z,1007.77
2017-11-27T09:25:00.921Z,1007.74
2017-11-27T09:25:26.373Z,1007.71
2017-11-27T09:25:51.834Z,1007.68
2017-11-27T09:26:17.298Z,1007.7
2017-11-27T09:26:42.755Z,1007.75
2017-11-27T09:27:08.179Z,1007.72
2017-11-27T09:27:33.670Z,1007.62
2017-11-27T09:27:59.152Z,1007.67
2017-11-27T09:28:24.631Z,1007.61
2017-11-27T09:28:50.080Z,1007.6
2017-11-27T09:29:15.544Z,1007.52
2017-11-27T09:29:41.049Z,1007.52
2017-11-27T09:30:06.488Z,1007.53
2017-11-27T09:30:31.947Z,1007.54
2017-11-27T09:30:57.474Z,1007.47
2017-11-27T09:31:22.927Z,1007.53
2017-11-27T09:31:48.369Z,1007.45
2017-11-27T09:32:13.831Z,1007.49
2017-11-27T09:32:39.262Z,1007.51
2017-11-27T09:33:04.733Z,1007.54
2017-11-27T09:33:30.227Z,1007.45
2017-11-27T09:33:55.749Z,1007.44
2017-11-27T09:34:21.201Z,1007.43
2017-11-27T09:34:46.653Z,1007.48
2017-11-27T09:35:12.201Z,1007.47
2017-11-27T09:35:37.618Z,1007.42
2017-11-27T09:36:03.086Z,1007.47
2017-11-27T09:36:28.562Z,1007.4
2017-11-27T09:36:54.083Z,1007.35
2017-11-27T09:37:19.557Z,1007.38
2017-11-27T09:37:45.076Z,1007.36
2017-11-27T09:38:10.475Z,1007.31
2017-11-27T09:38:35.990Z,1007.37
2017-11-27T09:39:01.417Z,1007.37
2017-11-27T09:39:26.894Z,1007.39
2017-11-27T09:39:52.366Z,1007.29
2017-11-27T09:40:17.811Z,1007.29
2017-11-27T09:40:43.254Z,1007.31
2017-11-27T09:41:08.747Z,1007.31
2017-11-27T09:41:34.182Z,1007.27
2017-11-27T09:41:59.675Z,1007.33
2017-11-27T09:42:25.143Z,1007.34
2017-11-27T09:42:50.667Z,1007.33
2017-11-27T09:43:16.096Z,1007.3
2017-11-27T09:43:41.587Z,1007.29
2017-11-27T09:44:07.021Z,1007.28
2017-11-27T09:44:32.447Z,1007.34
2017-11-27T09:44:57.930Z,1007.25
2017-11-27T09:45:23.449Z,1007.24
2017-11-27T09:45:48.903Z,1007.27
2017-11-27T09:46:14.345Z,1007.29
2017-11-27T09:46:39.841Z,1007.21
2017-11-27T09:47:05.281Z,1007.25
2017-11-27T09:47:30.799Z,1007.24
2017-11-27T09:47:56.240Z,1007.22
2017-11-27T09:48:21.697Z,1007.21
2017-11-27T09:48:47.144Z,1007.17
2017-11-27T09:49:12.648Z,1007.24
2017-11-27T09:49:38.104Z,1007.19
2017-11-27T09:50:03.601Z,1007.21
2017-11-27T09:50:29.024Z,1007.21
2017-11-27T09:50:54.629Z,1007.16
2017-11-27T09:51:20.067Z,1007.22
2017-11-27T09:51:45.474Z,1007.2
2017-11-27T09:52:10.990Z,1007.19
2017-11-27T09:52:36.443Z,1007.21
2017-11-27T09:53:01.907Z,1007.15
2017-11-27T09:53:27.414Z,1007.22
2017-11-27T09:53:52.861Z,1007.19
2017-11-27T09:54:18.375Z,1007.19
2017-11-27T09:54:43.794Z,1007.11
2017-11-27T09:55:09.298Z,1007.17
2017-11-27T09:55:34.803Z,1007.16
2017-11-27T09:56:00.282Z,1007.06
2017-11-27T09:56:25.697Z,1007.09
2017-11-27T09:56:51.226Z,1007.14
2017-11-27T09:57:16.660Z,1007.1
2017-11-27T09:57:42.119Z,1007.1
2017-11-27T09:58:07.644Z,1007.08
2017-11-27T09:58:33.103Z,1007.04
2017-11-27T09:58:58.627Z,1007.07
2017-11-27T09:59:24.118Z,1006.99
2017-11-27T09:59:49.570Z,1006.96
2017-11-27T10:00:15.090Z,1006.99
2017-11-27T10:00:40.546Z,1006.95
2017-11-27T10:01:06.015Z,1006.92
2017-11-27T10:01:31.473Z,1007.03
2017-11-27T10:01:56.938Z,1006.91
2017-11-27T10:02:22.378Z,1006.96
2017-11-27T10:02:47.935Z,1006.95
2017-11-27T10:03:13.393Z,1006.94
2017-11-27T10:03:38.898Z,1006.88
2017-11-27T10:04:04.344Z,1006.88
2017-11-27T10:04:29.792Z,1006.9
2017-11-27T10:04:55.270Z,1006.87
2017-11-27T10:05:20.705Z,1006.86
2017-11-27T10:05:46.199Z,1006.94
2017-11-27T10:06:11.600Z,1006.85
2017-11-27T10:06:37.054Z,1006.85
2017-11-27T10:07:02.548Z,1006.85
2017-11-27T10:07:28.044Z,1006.84
2017-11-27T10:07:53.487Z,1006.85
2017-11-27T10:08:18.923Z,1006.76
2017-11-27T10:08:44.396Z,1006.8
2017-11-27T10:09:09.876Z,1006.8
2017-11-27T10:09:35.387Z,1006.78
2017-11-27T10:10:00.866Z,1006.77
2017-11-27T10:10:26.358Z,1006.77
2017-11-27T10:10:51.796Z,1006.7
2017-11-27T10:11:17.240Z,1006.7
2017-11-27T10:11:42.705Z,1006.68
2017-11-27T10:12:08.227Z,1006.71
2017-11-27T10:12:33.683Z,1006.71